Saint Louis, MO

3:52 PM CDT on July 26, 2016 (GMT -0500)
Grand / Lindell | | Change Station

Elev 656 ft 38.64 °N, 90.23 °W | Updated 6 seconds ago

Scattered Clouds
Scattered Clouds
88.9 °F
Feels Like 93 °F
N
6.5
Wind Variable Wind from NE
Gusts 9.8 mph

Today
High -- | Low -- °F
--% Chance of Precip.
Yesterday
High -- | Low -- °F
Precip. -- in
Pressure 29.95 in
Visibility 10.0 miles
Clouds Scattered Clouds 4200 ft
Scattered Clouds 13000 ft
Scattered Clouds 25000 ft
Heat Index 93 °F
Dew Point 69 °F
Humidity 52%
Rainfall 0.00 in
Snow Depth Not available.
5:57 AM 8:16 PM
Waning Gibbous, 51% visible
METAR KSTL 261951Z 01006KT 10SM SCT042 SCT130 SCT250 32/22 A2999 RMK AO2 SLP140 T03220222
Pressure 29.95 in
Visibility 10.0 miles
Clouds Scattered Clouds 4200 ft
Scattered Clouds 13000 ft
Scattered Clouds 25000 ft
Heat Index 93 °F
Dew Point 69 °F
Humidity 52%
Rainfall 0.00 in
Snow Depth Not available.
5:57 AM 8:16 PM
Waning Gibbous, 51% visible
METAR KSTL 261951Z 01006KT 10SM SCT042 SCT130 SCT250 32/22 A2999 RMK AO2 SLP140 T03220222

10-Day Weather Forecast

Almanac

Astronomy

Jul. 26, 2016 Rise Set
Actual Time
Civil Twilight
Nautical Twilight
Astronomical Twilight
Moon
Length of Visible Light
Length of Day
Tomorrow will be .
, % of the Moon is Illuminated

Today's Extremes

State Highs State Lows

Community

WunderPhotos

Upload Photos

1,927,678 photos uploaded!

WunderBlog® & News

Nearby

Air Quality

  Air Quality AQ Index Pollutant
Not available.

Snow Depth

Station Depth Elevation

Earthquake Activity

City Distance Mag. Time & Date
Minimum magnitude displayed is 2.5.

Coastal Water Temperatures

Place Temperature

Stations

Nearby Weather Stations

Station Location Temp. Windchill Dew Point Humidity Wind Precip. Elev Updated Type
                   

Watches & Warnings

There are currently no watches in effect.